Time;durP1;ratioP1;P1;durP2;ratioP2;P2;SDS_P1;SDS_P2;PMS_P1;PMS_P2;Temp;Humidity;BMP_temperature;BMP_pressure;BME280_temperature;BME280_humidity;BME280_pressure;Samples;Min_cycle;Max_cycle;Signal;HPM_P1;HPM_P2
2021/12/09 00:02:06;;;;;;;34.30;20.20;;;;;;;-5.24;90.00;95783.30;107519;1283;41015;-76
2021/12/09 00:04:34;;;;;;;22.90;11.20;;;;;;;-5.22;90.00;95772.89;107549;1285;41597;-77
2021/12/09 00:07:03;;;;;;;25.40;11.20;;;;;;;-5.18;90.23;95770.64;105977;1285;2027098;-77
2021/12/09 00:09:32;;;;;;;39.70;18.60;;;;;;;-5.14;89.99;95770.71;107402;1285;59801;-76
2021/12/09 00:12:01;;;;;;;29.60;14.50;;;;;;;-5.11;90.22;95776.14;107382;1285;43850;-76
2021/12/09 00:14:33;;;;;;;40.90;21.30;;;;;;;-5.07;90.00;95773.88;107380;1284;40784;-77
2021/12/09 00:17:05;;;;;;;39.60;20.20;;;;;;;-5.03;90.08;95777.98;107371;1285;62692;-77
2021/12/09 00:19:35;;;;;;;30.20;17.30;;;;;;;-5.00;90.01;95775.58;107443;1283;36031;-76
2021/12/09 00:22:06;;;;;;;38.60;19.60;;;;;;;-5.05;89.65;95780.02;107427;1284;70488;-77
2021/12/09 00:24:35;;;;;;;41.80;19.90;;;;;;;-5.05;89.64;95771.73;107503;1281;72174;-76
2021/12/09 00:27:05;;;;;;;34.40;18.90;;;;;;;-5.01;89.55;95773.31;106301;1282;1705639;-76
2021/12/09 00:29:37;;;;;;;38.60;18.90;;;;;;;-4.95;89.72;95771.98;107534;1283;30584;-76
2021/12/09 00:32:08;;;;;;;36.80;20.40;;;;;;;-4.90;89.70;95770.67;107549;1284;57022;-76
2021/12/09 00:34:40;;;;;;;37.60;19.50;;;;;;;-4.82;89.60;95769.58;107516;1284;68239;-76
2021/12/09 00:37:19;;;;;;;33.70;19.20;;;;;;;-4.75;89.72;95773.31;107433;1284;46084;-76
2021/12/09 00:39:50;;;;;;;33.70;18.90;;;;;;;-4.69;89.60;95772.77;107515;1284;34322;-76
2021/12/09 00:42:20;;;;;;;32.60;17.50;;;;;;;-4.66;89.54;95776.41;106121;1282;1934040;-76
2021/12/09 00:44:51;;;;;;;34.00;18.90;;;;;;;-4.65;89.46;95770.04;107506;1281;45109;-77
2021/12/09 00:47:22;;;;;;;34.50;19.40;;;;;;;-4.66;89.32;95766.54;107534;1284;37345;-77
2021/12/09 00:49:53;;;;;;;33.40;17.00;;;;;;;-4.65;89.27;95760.34;107423;1283;82912;-77
2021/12/09 00:52:24;;;;;;;35.20;20.40;;;;;;;-4.65;89.13;95762.09;107579;1284;32156;-76
2021/12/09 00:54:54;;;;;;;34.80;19.90;;;;;;;-4.64;89.18;95761.02;107401;1285;38513;-76
2021/12/09 00:57:26;;;;;;;34.90;21.10;;;;;;;-4.61;89.07;95755.61;107468;1284;46504;-76
2021/12/09 00:59:55;;;;;;;30.30;16.90;;;;;;;-4.58;89.08;95756.19;107486;1282;50222;-76
2021/12/09 01:02:23;;;;;;;31.90;17.00;;;;;;;-4.55;89.07;95751.08;107554;1284;33392;-76
2021/12/09 01:04:52;;;;;;;32.80;17.40;;;;;;;-4.51;89.14;95745.70;107372;1284;40986;-76
2021/12/09 01:07:21;;;;;;;30.40;17.40;;;;;;;-4.51;89.03;95749.79;107407;1283;33459;-77
2021/12/09 01:09:50;;;;;;;32.50;17.80;;;;;;;-4.53;89.03;95748.88;107416;1284;80052;-77
2021/12/09 01:12:19;;;;;;;31.90;17.90;;;;;;;-4.58;88.94;95749.02;107574;1284;34671;-77
2021/12/09 01:14:48;;;;;;;38.90;19.80;;;;;;;-4.56;89.01;95741.06;107349;1285;48956;-77
2021/12/09 01:17:16;;;;;;;35.10;19.20;;;;;;;-4.51;89.06;95733.20;107537;1284;58378;-77
2021/12/09 01:19:45;;;;;;;35.90;20.50;;;;;;;-4.48;89.18;95735.63;107486;1285;47040;-77
2021/12/09 01:22:14;;;;;;;34.40;18.70;;;;;;;-4.42;89.17;95732.24;107586;1284;36133;-77
2021/12/09 01:24:43;;;;;;;35.60;19.60;;;;;;;-4.43;89.05;95727.04;107449;1284;60190;-76
2021/12/09 01:27:13;;;;;;;33.20;19.80;;;;;;;-4.40;89.12;95717.86;107559;1285;32508;-76
2021/12/09 01:29:50;;;;;;;35.10;20.20;;;;;;;-4.35;88.95;95715.87;107574;1284;49855;-76
2021/12/09 01:32:25;;;;;;;38.20;19.70;;;;;;;-4.33;89.23;95710.68;107575;1281;32270;-77
2021/12/09 01:34:54;;;;;;;40.10;19.30;;;;;;;-4.28;89.18;95712.84;107535;1283;51534;-77
2021/12/09 01:37:22;;;;;;;38.50;19.50;;;;;;;-4.27;89.20;95713.87;107522;1284;48325;-75
2021/12/09 01:39:52;;;;;;;33.10;20.30;;;;;;;-4.24;89.22;95715.63;107559;1284;32107;-76
2021/12/09 01:42:20;;;;;;;37.20;21.10;;;;;;;-4.20;89.14;95712.92;107500;1281;42972;-76
2021/12/09 01:44:49;;;;;;;30.40;18.40;;;;;;;-4.25;88.89;95719.02;107534;1282;39434;-76
2021/12/09 01:47:18;;;;;;;34.20;18.80;;;;;;;-4.26;88.91;95721.45;107554;1284;36045;-76
2021/12/09 01:49:46;;;;;;;40.10;21.20;;;;;;;-4.24;88.92;95714.31;107565;1284;34189;-76
2021/12/09 01:52:16;;;;;;;34.90;18.60;;;;;;;-4.25;88.76;95715.36;107619;1284;37855;-76
2021/12/09 01:54:45;;;;;;;33.90;19.70;;;;;;;-4.23;88.76;95718.14;107650;1284;31861;-76
2021/12/09 01:57:14;;;;;;;40.40;21.50;;;;;;;-4.33;88.65;95715.89;107585;1284;34448;-76
2021/12/09 01:59:43;;;;;;;38.90;21.20;;;;;;;-4.45;88.60;95711.66;107543;1284;74136;-76
2021/12/09 02:02:12;;;;;;;36.00;19.20;;;;;;;-4.54;88.66;95713.95;107516;1281;37450;-76
2021/12/09 02:04:41;;;;;;;34.40;17.20;;;;;;;-4.63;88.83;95724.22;107428;1283;42796;-76
2021/12/09 02:07:10;;;;;;;32.90;18.70;;;;;;;-4.68;88.82;95717.30;107377;1285;43023;-76
2021/12/09 02:09:39;;;;;;;40.80;21.90;;;;;;;-4.69;89.11;95710.75;107417;1285;40525;-76
2021/12/09 02:12:10;;;;;;;35.30;20.00;;;;;;;-4.65;89.04;95701.83;107356;1285;66181;-76
2021/12/09 02:14:42;;;;;;;33.70;19.60;;;;;;;-4.58;89.40;95699.41;107464;1285;30853;-76
2021/12/09 02:17:12;;;;;;;36.90;20.10;;;;;;;-4.48;89.54;95707.97;107577;1285;66333;-76
2021/12/09 02:19:45;;;;;;;36.10;20.70;;;;;;;-4.42;89.41;95707.61;107616;1284;40335;-76
2021/12/09 02:22:15;;;;;;;34.50;20.40;;;;;;;-4.36;89.48;95710.10;107537;1284;35272;-76
2021/12/09 02:24:45;;;;;;;37.70;19.60;;;;;;;-4.28;89.61;95704.72;107496;1285;40691;-76
2021/12/09 02:27:14;;;;;;;36.60;20.60;;;;;;;-4.22;89.64;95702.17;107447;1282;69058;-76
2021/12/09 02:29:43;;;;;;;36.60;19.70;;;;;;;-4.15;89.53;95702.73;107651;1284;36866;-76
2021/12/09 02:32:12;;;;;;;36.00;19.30;;;;;;;-4.09;89.49;95698.63;107459;1284;46287;-76
2021/12/09 02:34:40;;;;;;;34.10;19.30;;;;;;;-4.05;89.53;95696.70;107401;1284;54272;-76
2021/12/09 02:37:12;;;;;;;33.80;18.40;;;;;;;-4.02;89.59;95698.88;107380;1284;45607;-76
2021/12/09 02:39:42;;;;;;;32.30;17.30;;;;;;;-4.00;89.48;95704.67;107483;1285;44937;-76
2021/12/09 02:42:11;;;;;;;26.30;16.70;;;;;;;-4.00;89.69;95694.16;107448;1285;32257;-76
2021/12/09 02:44:40;;;;;;;30.70;17.00;;;;;;;-4.00;89.58;95691.36;107477;1284;46089;-76
2021/12/09 02:47:09;;;;;;;31.60;18.80;;;;;;;-3.99;89.66;95702.31;107524;1284;35805;-76
2021/12/09 02:49:38;;;;;;;35.70;19.50;;;;;;;-3.94;89.67;95701.61;107461;1285;38609;-76
2021/12/09 02:52:07;;;;;;;31.80;17.30;;;;;;;-3.89;89.84;95694.33;107460;1285;37674;-76
2021/12/09 02:54:36;;;;;;;32.30;17.10;;;;;;;-3.90;89.64;95694.62;105899;1285;2111171;-76
2021/12/09 02:57:07;;;;;;;34.90;19.30;;;;;;;-3.87;89.67;95694.48;107434;1284;33171;-76
2021/12/09 02:59:37;;;;;;;34.40;18.70;;;;;;;-3.86;89.62;95705.06;107363;1284;63210;-76
2021/12/09 03:02:09;;;;;;;32.40;17.60;;;;;;;-3.84;89.58;95711.61;107453;1285;32434;-76
2021/12/09 03:04:43;;;;;;;34.50;17.60;;;;;;;-3.82;89.57;95708.36;107470;1281;35708;-76
2021/12/09 03:07:14;;;;;;;29.50;15.40;;;;;;;-3.82;89.57;95704.38;107522;1285;38876;-76
2021/12/09 03:09:49;;;;;;;30.20;17.00;;;;;;;-3.88;89.24;95704.52;107470;1281;59522;-76
2021/12/09 03:12:21;;;;;;;33.10;18.00;;;;;;;-3.89;89.31;95706.59;107598;1284;43891;-76
2021/12/09 03:14:50;;;;;;;34.80;19.10;;;;;;;-3.84;89.35;95704.88;107404;1284;31702;-76
2021/12/09 03:17:20;;;;;;;30.20;17.10;;;;;;;-3.80;89.44;95700.20;107499;1284;43803;-76
2021/12/09 03:19:49;;;;;;;33.00;18.50;;;;;;;-3.88;89.19;95703.16;107400;1285;32633;-76
2021/12/09 03:22:18;;;;;;;38.20;18.80;;;;;;;-3.95;89.13;95698.63;107523;1284;43598;-76
2021/12/09 03:24:48;;;;;;;36.90;19.00;;;;;;;-3.95;89.29;95698.27;107466;1285;32452;-76
2021/12/09 03:27:16;;;;;;;34.10;18.90;;;;;;;-3.90;89.40;95699.59;107538;1283;41384;-76
2021/12/09 03:29:46;;;;;;;29.30;17.60;;;;;;;-3.85;89.55;95701.11;107546;1285;29007;-76
2021/12/09 03:32:17;;;;;;;35.00;18.40;;;;;;;-3.84;89.44;95701.73;107495;1284;45964;-76
2021/12/09 03:34:47;;;;;;;36.40;19.50;;;;;;;-3.80;89.57;95705.90;107481;1283;31681;-76
2021/12/09 03:37:18;;;;;;;37.50;19.40;;;;;;;-3.73;89.78;95705.29;107459;1284;63310;-76
2021/12/09 03:39:48;;;;;;;33.70;18.60;;;;;;;-3.67;89.75;95701.85;107465;1284;36013;-76
2021/12/09 03:42:21;;;;;;;30.10;17.30;;;;;;;-3.63;89.83;95700.32;107384;1285;57150;-76
2021/12/09 03:44:51;;;;;;;35.80;17.80;;;;;;;-3.60;89.77;95693.80;107473;1284;33003;-76
2021/12/09 03:47:24;;;;;;;35.80;18.80;;;;;;;-3.55;89.69;95693.50;107425;1285;36275;-76
2021/12/09 03:49:53;;;;;;;29.60;16.80;;;;;;;-3.53;89.72;95689.06;107393;1284;43399;-76
2021/12/09 03:52:22;;;;;;;31.20;17.40;;;;;;;-3.51;89.57;95686.67;107412;1285;34644;-76
2021/12/09 03:54:51;;;;;;;31.10;16.80;;;;;;;-3.46;89.55;95682.60;107452;1284;76145;-76
2021/12/09 03:57:20;;;;;;;30.70;17.60;;;;;;;-3.44;89.58;95684.28;107570;1282;35244;-76
2021/12/09 03:59:50;;;;;;;34.90;18.30;;;;;;;-3.40;89.57;95685.73;107512;1284;48975;-76
2021/12/09 04:02:20;;;;;;;18.90;11.50;;;;;;;-3.38;89.69;95687.85;107574;1284;31207;-76
2021/12/09 04:04:49;;;;;;;35.90;18.60;;;;;;;-3.44;89.55;95693.39;107690;1284;66860;-76
2021/12/09 04:07:17;;;;;;;32.30;19.20;;;;;;;-3.59;89.40;95699.05;107536;1282;33983;-76
2021/12/09 04:09:46;;;;;;;31.40;17.80;;;;;;;-3.68;89.45;95709.98;107443;1284;69628;-76
2021/12/09 04:12:15;;;;;;;29.80;16.50;;;;;;;-3.74;89.50;95710.23;107568;1284;39780;-76
2021/12/09 04:14:44;;;;;;;31.80;16.90;;;;;;;-3.79;89.63;95711.30;107591;1281;64204;-76
2021/12/09 04:17:13;;;;;;;35.40;18.90;;;;;;;-3.80;89.66;95709.23;107597;1284;50800;-76
2021/12/09 04:19:47;;;;;;;35.00;19.60;;;;;;;-3.75;89.93;95710.20;107624;1284;32586;-76
2021/12/09 04:22:18;;;;;;;35.10;18.10;;;;;;;-3.72;89.87;95712.67;107630;1284;37717;-76
2021/12/09 04:24:48;;;;;;;33.90;18.20;;;;;;;-3.70;90.04;95713.06;107557;1282;35750;-76
2021/12/09 04:27:16;;;;;;;;;;;;;;;-3.66;90.02;95715.80;107569;1284;39986;-76
2021/12/09 04:29:45;;;;;;;30.50;16.10;;;;;;;-3.62;89.93;95714.30;107608;1284;61916;-76
2021/12/09 04:32:15;;;;;;;32.80;19.10;;;;;;;-3.67;89.74;95709.73;107500;1282;36525;-76
2021/12/09 04:34:44;;;;;;;32.10;17.80;;;;;;;-3.69;89.82;95697.08;107488;1284;35544;-76
2021/12/09 04:37:25;;;;;;;36.30;18.10;;;;;;;-3.68;89.78;95685.08;107487;1285;35081;-76
2021/12/09 04:39:54;;;;;;;25.10;14.60;;;;;;;-3.68;89.85;95682.56;107405;1282;76352;-76
2021/12/09 04:42:23;;;;;;;32.00;18.00;;;;;;;-3.70;89.89;95690.67;107424;1281;47966;-76
2021/12/09 04:44:51;;;;;;;33.60;17.40;;;;;;;-3.78;89.89;95692.39;107452;1283;53080;-76
2021/12/09 04:47:20;;;;;;;32.90;17.80;;;;;;;-3.81;89.94;95690.84;107504;1284;30050;-76
2021/12/09 04:49:49;;;;;;;29.60;15.90;;;;;;;-3.81;90.03;95684.23;107469;1284;48475;-76
2021/12/09 04:52:18;;;;;;;30.10;15.70;;;;;;;-3.77;90.05;95688.64;107440;1284;32624;-76
2021/12/09 04:54:46;;;;;;;29.80;17.60;;;;;;;-3.80;90.04;95692.39;107470;1281;36160;-76
2021/12/09 04:57:16;;;;;;;28.70;17.10;;;;;;;-3.81;90.07;95692.91;107462;1281;39307;-76
2021/12/09 04:59:47;;;;;;;31.60;18.60;;;;;;;-3.84;90.16;95688.47;107484;1285;68982;-76
2021/12/09 05:02:25;;;;;;;32.20;17.40;;;;;;;-3.82;90.07;95681.80;107521;1285;38167;-76
2021/12/09 05:04:54;;;;;;;29.70;18.40;;;;;;;-3.79;90.23;95663.27;107539;1284;48032;-76
2021/12/09 05:07:23;;;;;;;32.90;20.40;;;;;;;-3.85;90.08;95652.08;107394;1281;36733;-76
2021/12/09 05:09:52;;;;;;;37.20;21.10;;;;;;;-3.93;90.04;95659.55;107385;1284;43224;-76
2021/12/09 05:12:22;;;;;;;37.10;21.00;;;;;;;-4.07;89.77;95676.36;107476;1285;38775;-76
2021/12/09 05:14:51;;;;;;;35.30;20.00;;;;;;;-4.14;89.81;95685.17;107372;1282;43888;-76
2021/12/09 05:17:20;;;;;;;39.90;20.40;;;;;;;-4.14;89.91;95693.89;107454;1284;46716;-76
2021/12/09 05:19:49;;;;;;;40.90;21.40;;;;;;;-4.16;89.95;95692.39;107411;1284;33513;-76
2021/12/09 05:22:18;;;;;;;41.50;23.40;;;;;;;-4.23;89.86;95676.52;107419;1284;49995;-76
2021/12/09 05:24:49;;;;;;;41.20;22.70;;;;;;;-4.34;89.86;95669.24;107439;1284;36538;-76
2021/12/09 05:27:20;;;;;;;34.60;20.10;;;;;;;-4.50;90.04;95660.38;107535;1284;33589;-76
2021/12/09 05:30:03;;;;;;;36.60;20.90;;;;;;;-4.58;90.34;95673.20;107542;1282;58940;-76
2021/12/09 05:32:32;;;;;;;38.00;22.20;;;;;;;-4.57;90.45;95688.30;107339;1284;53035;-76
2021/12/09 05:35:02;;;;;;;34.70;21.10;;;;;;;-4.54;90.54;95705.91;107458;1284;38927;-76
2021/12/09 05:37:31;;;;;;;38.20;20.40;;;;;;;-4.52;90.67;95721.70;106090;1285;1800537;-76
2021/12/09 05:40:01;;;;;;;42.00;21.90;;;;;;;-4.63;90.28;95718.57;107513;1284;56871;-76
2021/12/09 05:42:29;;;;;;;36.70;19.90;;;;;;;-4.72;90.23;95701.38;107503;1284;63191;-76
2021/12/09 05:44:59;;;;;;;29.10;16.70;;;;;;;-4.76;90.22;95692.41;107530;1284;34931;-76
2021/12/09 05:47:29;;;;;;;37.40;20.20;;;;;;;-4.80;90.20;95677.73;107551;1284;44997;-76
2021/12/09 05:49:58;;;;;;;36.60;19.50;;;;;;;-4.82;90.22;95663.02;107483;1282;53684;-76
2021/12/09 05:52:27;;;;;;;36.20;20.40;;;;;;;-4.83;90.36;95654.32;107512;1284;39246;-76
2021/12/09 05:54:55;;;;;;;40.80;21.10;;;;;;;-4.83;90.50;95650.95;106223;1284;1749550;-76
2021/12/09 05:57:24;;;;;;;38.90;20.60;;;;;;;-4.88;90.41;95656.73;107493;1284;58102;-76
2021/12/09 05:59:55;;;;;;;35.00;21.50;;;;;;;-5.02;90.26;95661.43;107513;1284;36740;-76
2021/12/09 06:02:24;;;;;;;42.30;21.90;;;;;;;-5.15;90.64;95655.00;107460;1284;75423;-76
2021/12/09 06:04:53;;;;;;;32.60;18.00;;;;;;;-5.19;90.92;95662.77;107564;1284;40215;-76
2021/12/09 06:07:21;;;;;;;39.30;21.00;;;;;;;-5.22;90.97;95661.88;107523;1284;34956;-76
2021/12/09 06:09:50;;;;;;;34.10;18.40;;;;;;;-5.20;91.14;95669.27;107561;1284;31439;-76
2021/12/09 06:12:20;;;;;;;35.40;21.00;;;;;;;-5.17;91.33;95681.83;107524;1284;43443;-76
2021/12/09 06:14:49;;;;;;;38.00;22.50;;;;;;;-5.18;91.30;95686.45;107496;1284;44021;-76
2021/12/09 06:17:18;;;;;;;33.70;17.60;;;;;;;-5.09;91.33;95694.62;107465;1284;55711;-76
2021/12/09 06:19:47;;;;;;;36.30;20.20;;;;;;;-5.04;91.33;95700.14;107544;1282;32003;-76
2021/12/09 06:22:16;;;;;;;43.10;21.50;;;;;;;-5.07;91.25;95712.38;107612;1284;35321;-76
2021/12/09 06:24:46;;;;;;;37.10;20.50;;;;;;;-5.09;91.33;95714.16;107583;1284;34029;-76
2021/12/09 06:27:16;;;;;;;43.00;23.10;;;;;;;-5.09;91.34;95712.05;107556;1284;44876;-76
2021/12/09 06:29:45;;;;;;;38.60;20.30;;;;;;;-5.05;91.50;95709.35;107488;1284;37222;-76
2021/12/09 06:32:14;;;;;;;38.70;20.30;;;;;;;-4.94;91.68;95705.55;107518;1285;33112;-76
2021/12/09 06:34:43;;;;;;;35.50;20.90;;;;;;;-4.84;91.62;95700.41;107625;1284;46416;-76
2021/12/09 06:37:13;;;;;;;35.80;19.40;;;;;;;-4.75;91.80;95713.52;107535;1284;54852;-76
2021/12/09 06:39:41;;;;;;;32.50;18.60;;;;;;;-4.72;91.65;95721.39;107504;1285;50212;-76
2021/12/09 06:42:10;;;;;;;33.50;19.60;;;;;;;-4.75;91.52;95722.95;107439;1285;36564;-76
2021/12/09 06:44:39;;;;;;;32.00;18.10;;;;;;;-4.71;91.65;95726.87;107339;1285;84275;-76
2021/12/09 06:47:10;;;;;;;36.70;19.50;;;;;;;-4.60;91.70;95720.11;107453;1285;36762;-76
2021/12/09 06:49:39;;;;;;;32.30;18.60;;;;;;;-4.56;91.58;95711.69;107358;1284;38245;-76
2021/12/09 06:52:08;;;;;;;33.80;19.70;;;;;;;-4.50;91.60;95706.70;107355;1285;60791;-76
2021/12/09 06:54:37;;;;;;;24.00;13.70;;;;;;;-4.41;91.70;95710.08;107553;1281;40240;-76
2021/12/09 06:57:06;;;;;;;35.70;19.00;;;;;;;-4.32;91.73;95711.74;107410;1285;44426;-76
2021/12/09 06:59:38;;;;;;;37.90;18.80;;;;;;;-4.23;91.75;95707.08;107401;1281;45525;-76
2021/12/09 07:02:10;;;;;;;33.50;19.90;;;;;;;-4.16;91.64;95710.47;107445;1285;45841;-76
2021/12/09 07:04:39;;;;;;;33.40;20.00;;;;;;;-4.08;91.78;95714.48;107421;1285;38713;-76
2021/12/09 07:07:08;;;;;;;35.80;19.70;;;;;;;-4.01;91.71;95718.42;107376;1284;74818;-76
2021/12/09 07:09:38;;;;;;;38.20;19.60;;;;;;;-3.94;91.61;95724.59;107456;1284;46151;-76
2021/12/09 07:12:08;;;;;;;33.60;19.30;;;;;;;-3.90;91.54;95729.70;107471;1284;42606;-76
2021/12/09 07:14:39;;;;;;;32.80;18.40;;;;;;;-3.87;91.49;95727.57;107476;1285;41389;-76
2021/12/09 07:17:08;;;;;;;34.60;19.80;;;;;;;-3.83;91.61;95716.98;107423;1285;39108;-76
2021/12/09 07:19:37;;;;;;;33.80;18.80;;;;;;;-3.78;91.68;95703.70;107442;1287;39677;-76
2021/12/09 07:22:06;;;;;;;34.70;18.90;;;;;;;-3.71;91.64;95714.79;107459;1285;32644;-76
2021/12/09 07:24:38;;;;;;;41.50;19.10;;;;;;;-3.67;91.58;95721.53;107352;1285;69675;-76
2021/12/09 07:27:07;;;;;;;34.70;18.60;;;;;;;-3.68;91.57;95719.85;107515;1282;30356;-76
2021/12/09 07:29:36;;;;;;;31.50;17.50;;;;;;;-3.63;91.62;95720.39;107500;1284;37412;-76
2021/12/09 07:32:07;;;;;;;34.40;17.80;;;;;;;-3.57;91.68;95725.00;107462;1278;158554;-76
2021/12/09 07:34:34;;;;;;;;;;;;;;;-3.54;91.60;95727.20;107623;1284;51351;-76
2021/12/09 07:37:05;;;;;;;34.00;19.50;;;;;;;-3.50;91.69;95726.27;107516;1284;34843;-76
2021/12/09 07:39:36;;;;;;;33.40;18.20;;;;;;;-3.44;91.57;95723.12;107496;1285;38507;-76
2021/12/09 07:42:06;;;;;;;41.20;27.00;;;;;;;-3.43;91.62;95727.16;107446;1285;33346;-76
2021/12/09 07:44:38;;;;;;;34.70;21.10;;;;;;;-3.35;91.71;95726.48;107409;1282;55489;-76
2021/12/09 07:47:07;;;;;;;38.90;23.50;;;;;;;-3.33;91.54;95716.45;107419;1285;39047;-76
2021/12/09 07:49:36;;;;;;;40.60;22.20;;;;;;;-3.29;91.67;95710.63;107447;1282;52197;-76
2021/12/09 07:52:06;;;;;;;31.00;18.80;;;;;;;-3.22;91.78;95708.41;107423;1284;40733;-76
2021/12/09 07:54:35;;;;;;;32.20;20.00;;;;;;;-3.16;91.73;95712.58;107483;1285;50927;-76
2021/12/09 07:57:04;;;;;;;41.40;21.40;;;;;;;-3.10;91.60;95705.47;107450;1281;35778;-76
2021/12/09 07:59:34;;;;;;;40.00;22.40;;;;;;;-3.03;91.60;95706.08;105932;1284;2051126;-76
2021/12/09 08:02:05;;;;;;;40.20;20.00;;;;;;;-3.02;91.53;95711.41;107406;1284;42273;-76
2021/12/09 08:04:34;;;;;;;39.40;22.20;;;;;;;-3.11;91.38;95711.61;107426;1284;45296;-76
2021/12/09 08:07:03;;;;;;;46.30;27.40;;;;;;;-3.24;91.17;95710.86;107425;1285;39948;-76
2021/12/09 08:09:32;;;;;;;40.60;25.60;;;;;;;-3.30;91.21;95707.00;107447;1285;40860;-76
2021/12/09 08:12:01;;;;;;;42.30;23.80;;;;;;;-3.24;91.17;95708.15;107440;1285;42295;-76
2021/12/09 08:14:30;;;;;;;43.60;24.20;;;;;;;-3.23;91.17;95710.95;107405;1284;34370;-76
2021/12/09 08:17:11;;;;;;;44.20;25.60;;;;;;;-3.17;91.32;95711.32;107514;1284;44168;-76
2021/12/09 08:19:40;;;;;;;42.60;26.40;;;;;;;-3.04;91.52;95710.15;107486;1284;30579;-76
2021/12/09 08:22:10;;;;;;;45.40;25.40;;;;;;;-2.98;91.32;95712.75;107408;1285;66395;-76
2021/12/09 08:24:38;;;;;;;;;;;;;;;-2.90;91.34;95708.33;107479;1285;35325;-76
2021/12/09 08:27:07;;;;;;;44.50;25.20;;;;;;;-2.73;91.48;95708.66;107435;1284;35879;-76
2021/12/09 08:29:35;;;;;;;49.80;27.50;;;;;;;-2.54;91.40;95705.38;107447;1285;36579;-76
2021/12/09 08:32:06;;;;;;;47.10;26.00;;;;;;;-2.47;91.06;95708.89;107449;1284;45149;-76
2021/12/09 08:34:35;;;;;;;42.60;22.90;;;;;;;-2.45;90.71;95711.65;107563;1284;42372;-76
2021/12/09 08:37:04;;;;;;;39.70;23.40;;;;;;;-2.36;90.72;95709.72;107458;1284;38998;-76
2021/12/09 08:39:34;;;;;;;39.40;22.60;;;;;;;-2.31;90.60;95711.05;107409;1285;43312;-76
2021/12/09 08:42:03;;;;;;;42.80;24.40;;;;;;;-2.43;90.11;95715.86;107439;1284;36446;-75
2021/12/09 08:44:33;;;;;;;40.20;24.70;;;;;;;-2.53;90.07;95723.21;107426;1284;40904;-76
2021/12/09 08:47:02;;;;;;;45.10;23.50;;;;;;;-2.59;89.96;95720.65;107422;1285;41153;-76
2021/12/09 08:49:31;;;;;;;38.80;23.70;;;;;;;-2.54;90.04;95720.87;107525;1285;28782;-76
2021/12/09 08:52:00;;;;;;;38.60;22.50;;;;;;;-2.40;90.31;95717.98;107465;1284;46068;-76
2021/12/09 08:54:30;;;;;;;40.10;23.90;;;;;;;-2.33;90.16;95708.91;107429;1285;43516;-76
2021/12/09 08:56:57;;;;;;;;;;;;;;;-2.31;90.20;95719.44;107475;1284;30058;-76
2021/12/09 08:59:27;;;;;;;37.90;23.10;;;;;;;-2.30;90.08;95719.38;107436;1285;35231;-76
2021/12/09 09:01:56;;;;;;;42.50;23.40;;;;;;;-2.25;89.86;95727.75;107447;1285;28865;-76
2021/12/09 09:04:25;;;;;;;36.50;22.70;;;;;;;-2.25;89.91;95738.89;107424;1285;48013;-76
2021/12/09 09:06:57;;;;;;;40.60;22.80;;;;;;;-2.24;89.95;95737.31;107446;1285;38808;-76
2021/12/09 09:09:32;;;;;;;42.90;24.10;;;;;;;-2.05;90.12;95729.08;107657;1284;30284;-76
2021/12/09 09:12:03;;;;;;;42.90;24.00;;;;;;;-1.87;90.04;95722.42;107410;1285;41220;-76
2021/12/09 09:14:32;;;;;;;43.20;24.60;;;;;;;-1.70;90.21;95709.92;107443;1285;31024;-76
2021/12/09 09:17:01;;;;;;;36.60;21.70;;;;;;;-1.53;90.29;95698.09;107398;1285;59180;-76
2021/12/09 09:19:30;;;;;;;;;;;;;;;-1.45;90.09;95679.66;107455;1285;37848;-76
2021/12/09 09:21:59;;;;;;;36.70;21.50;;;;;;;-1.55;89.54;95669.27;107544;1284;43823;-76
2021/12/09 09:24:28;;;;;;;45.20;25.60;;;;;;;-1.72;89.16;95673.83;107507;1284;45422;-76
2021/12/09 09:26:57;;;;;;;45.10;24.70;;;;;;;-1.92;88.98;95683.91;107404;1285;53643;-76
2021/12/09 09:29:27;;;;;;;41.50;22.70;;;;;;;-1.92;89.40;95689.78;107477;1284;30325;-77
2021/12/09 09:31:56;;;;;;;43.50;24.50;;;;;;;-1.92;89.33;95679.64;107548;1284;39705;-76
2021/12/09 09:34:25;;;;;;;50.50;26.60;;;;;;;-1.95;89.19;95672.98;107445;1285;38619;-76
2021/12/09 09:36:55;;;;;;;47.50;27.40;;;;;;;-1.89;89.59;95672.86;107434;1284;40192;-76
2021/12/09 09:39:29;;;;;;;45.50;25.00;;;;;;;-1.90;89.44;95673.89;107466;1282;47072;-76
2021/12/09 09:42:06;;;;;;;41.00;24.20;;;;;;;-1.87;89.53;95673.73;107489;1284;31385;-76
2021/12/09 09:44:47;;;;;;;38.70;21.50;;;;;;;-1.93;89.31;95666.42;107454;1285;35032;-76
2021/12/09 09:47:15;;;;;;;;;;;;;;;-1.95;89.13;95659.46;107509;1285;39005;-76
2021/12/09 09:49:45;;;;;;;32.90;18.90;;;;;;;-1.98;89.22;95638.92;107597;1285;38644;-76
2021/12/09 09:52:14;;;;;;;33.30;19.90;;;;;;;-1.96;89.39;95627.87;107511;1285;37392;-76
2021/12/09 09:54:47;;;;;;;43.10;23.10;;;;;;;-1.97;89.23;95626.33;107553;1285;35162;-76
2021/12/09 09:57:16;;;;;;;40.80;23.70;;;;;;;-2.06;89.28;95645.52;107620;1285;34848;-76
2021/12/09 09:59:46;;;;;;;41.70;23.50;;;;;;;-2.13;89.27;95650.81;107581;1284;37292;-76
2021/12/09 10:02:16;;;;;;;37.10;21.60;;;;;;;-2.05;89.56;95650.59;107559;1284;37905;-76
2021/12/09 10:04:48;;;;;;;35.40;21.90;;;;;;;-1.97;89.69;95649.59;107623;1284;35559;-76
2021/12/09 10:07:22;;;;;;;34.30;20.20;;;;;;;-2.04;89.35;95645.38;107590;1284;42163;-76
2021/12/09 10:09:52;;;;;;;38.40;21.90;;;;;;;-2.17;89.26;95640.59;107506;1284;41814;-76
2021/12/09 10:12:21;;;;;;;34.30;21.10;;;;;;;-2.25;89.25;95639.52;107530;1284;31767;-76
2021/12/09 10:14:55;;;;;;;37.70;22.70;;;;;;;-2.30;89.43;95645.17;107453;1284;56232;-76
2021/12/09 10:17:26;;;;;;;35.10;21.70;;;;;;;-2.30;89.62;95625.14;107556;1284;32188;-76
2021/12/09 10:19:57;;;;;;;31.40;19.70;;;;;;;-2.20;89.73;95615.70;107434;1285;52652;-76
2021/12/09 10:22:31;;;;;;;44.20;26.00;;;;;;;-2.20;89.89;95618.64;107539;1284;35066;-76
2021/12/09 10:25:02;;;;;;;45.20;24.50;;;;;;;-2.37;89.36;95618.13;107451;1285;36470;-76
2021/12/09 10:27:34;;;;;;;43.50;24.70;;;;;;;-2.42;89.81;95623.70;107463;1285;40890;-76
2021/12/09 10:30:19;;;;;;;42.00;24.30;;;;;;;-2.34;90.04;95615.25;107514;1285;38924;-76
2021/12/09 10:32:50;;;;;;;53.60;29.30;;;;;;;-2.29;90.26;95615.82;107427;1284;40673;-76
2021/12/09 10:35:21;;;;;;;46.70;24.40;;;;;;;-2.21;90.43;95606.84;107652;1284;32547;-76
2021/12/09 10:37:52;;;;;;;46.20;26.30;;;;;;;-2.16;90.17;95614.49;107485;1285;34312;-76
2021/12/09 10:40:25;;;;;;;48.80;25.50;;;;;;;-2.01;90.42;95608.77;107486;1285;41467;-76
2021/12/09 10:42:57;;;;;;;40.60;23.40;;;;;;;-1.92;90.34;95591.69;107483;1285;40308;-76
2021/12/09 10:45:29;;;;;;;38.40;22.50;;;;;;;-1.88;90.36;95590.60;107496;1284;29456;-76
2021/12/09 10:48:03;;;;;;;41.90;24.20;;;;;;;-1.87;90.17;95598.20;107462;1284;42822;-76
2021/12/09 10:50:37;;;;;;;40.10;22.60;;;;;;;-1.87;90.18;95582.96;107551;1284;39251;-76
2021/12/09 10:53:30;;;;;;;42.50;23.70;;;;;;;-1.84;90.00;95580.45;107447;1282;34254;-76
2021/12/09 10:56:07;;;;;;;47.90;27.30;;;;;;;-1.81;89.87;95587.66;107507;1282;37419;-76
2021/12/09 10:58:39;;;;;;;45.40;26.90;;;;;;;-1.86;90.06;95588.85;107498;1285;38870;-76
2021/12/09 11:01:10;;;;;;;40.90;23.60;;;;;;;-1.80;90.23;95577.98;107501;1278;39617;-76
2021/12/09 11:03:41;;;;;;;42.60;23.60;;;;;;;-1.69;90.30;95576.16;107473;1285;33692;-76
2021/12/09 11:06:09;;;;;;;;;;;;;;;-1.63;90.27;95579.98;107462;1285;36315;-76
2021/12/09 11:08:41;;;;;;;44.50;27.10;;;;;;;-1.68;90.00;95572.95;107556;1284;33722;-76
2021/12/09 11:11:13;;;;;;;43.70;24.80;;;;;;;-1.82;89.58;95560.19;107503;1285;39379;-76
2021/12/09 11:13:46;;;;;;;43.50;24.80;;;;;;;-1.83;89.88;95571.32;107444;1281;39968;-76
2021/12/09 11:16:23;;;;;;;43.60;23.20;;;;;;;-1.90;89.90;95572.11;107469;1285;44324;-76
2021/12/09 11:18:56;;;;;;;42.50;24.40;;;;;;;-1.91;90.01;95581.13;107525;1283;34069;-76
2021/12/09 11:21:31;;;;;;;47.00;26.10;;;;;;;-1.90;90.01;95588.79;107512;1285;41980;-76
2021/12/09 11:24:04;;;;;;;42.10;23.50;;;;;;;-1.78;90.18;95589.52;107462;1285;33254;-76
2021/12/09 11:26:47;;;;;;;39.50;23.50;;;;;;;-1.70;90.38;95587.92;107520;1284;37150;-76